메인 페이지
METAR-TAF:

METAR-TAF

공항 :

Resistencia, 아르헨티나

위도: 27-27S, 경도: 059-03W, 고도: 53m

현재 날씨관측

예보는 33분 전, 10:00시(UTC)에 발표되었습니다.
남서4kt
온도 7°C
습도 87%
기압 1027 hPa
시정 10km 이상
고도 3400ft 상공 구름 많음

METAR: SARE 141000Z 22004KT 9999 BKN034 07/05 Q1027

시각: 07:33 (10:33 UTC)

예보

예보는 5 시간 33분 전, 05:00시(UTC)에 발표되었습니다.
예보 대상 시간: 14일 06시부터 15일 06시까지 (UTC)
남서5kt
시정 10km 이상
고도 3500ft 상공 흐림

TAF: SARE 140500Z 1406/1506 22005KT 9999 OVC035 TX17/1418Z TN05/1409Z

4,000개 이상의 공항 관측 자료 및 예보 (METAR 및 TAF 보고).

지도상에서 검색 가능한 기상관측소가 노란 점과 빨간 점으로 표시되어 있습니다.

기상관측소 명을 보려면 표시 위로 마우스를 이동하세요.

날씨 관측과 예보를 보려면 클릭하세요.

지도 변경 : 확대하려면 엑스 표시가 있는 녹색 버튼, 축소하려면 빼기 표시가 있는 녹색 버튼, 다음 페이지의 지도를 보려면 녹색 화살표를 클릭하세요.


METAR-TAF: